Time;durP1;ratioP1;P1;durP2;ratioP2;P2;SDS_P1;SDS_P2;PMS_P1;PMS_P2;Temp;Humidity;BMP_temperature;BMP_pressure;BME280_temperature;BME280_humidity;BME280_pressure;Samples;Min_cycle;Max_cycle;Signal;HPM_P1;HPM_P2
2022/10/18 00:02:19;;;;;;;2.83;2.33;;;18.00;99.90;;;;;;5026193;28;20205;-72
2022/10/18 00:04:47;;;;;;;3.20;2.28;;;18.00;99.90;;;;;;5025233;28;20207;-73
2022/10/18 00:07:15;;;;;;;4.40;2.58;;;18.00;99.90;;;;;;5030123;28;20227;-73
2022/10/18 00:09:41;;;;;;;3.53;2.15;;;18.00;99.90;;;;;;5024740;28;20286;-72
2022/10/18 00:12:07;;;;;;;4.10;2.40;;;18.10;99.90;;;;;;5025110;28;20257;-73
2022/10/18 00:14:32;;;;;;;3.55;2.47;;;18.10;99.90;;;;;;5026483;28;20182;-73
2022/10/18 00:16:58;;;;;;;3.22;2.67;;;18.10;99.90;;;;;;5027906;28;20273;-73
2022/10/18 00:19:24;;;;;;;2.92;2.50;;;18.10;99.90;;;;;;5030892;28;20174;-73
2022/10/18 00:21:50;;;;;;;3.13;2.47;;;18.10;99.90;;;;;;5026837;28;20197;-73
2022/10/18 00:24:17;;;;;;;3.67;2.47;;;18.00;99.90;;;;;;5025305;28;20197;-72
2022/10/18 00:26:43;;;;;;;4.72;3.00;;;18.10;99.90;;;;;;5018377;28;20194;-76
2022/10/18 00:29:13;;;;;;;4.47;2.92;;;18.10;99.90;;;;;;5015549;28;20205;-72
2022/10/18 00:31:42;;;;;;;3.95;3.03;;;18.10;99.90;;;;;;5032494;28;20205;-72
2022/10/18 00:34:14;;;;;;;4.47;3.08;;;18.10;99.90;;;;;;5036844;28;20186;-72
2022/10/18 00:36:44;;;;;;;4.32;3.10;;;18.10;99.90;;;;;;5030209;28;20174;-71
2022/10/18 00:39:15;;;;;;;4.28;3.22;;;18.10;99.90;;;;;;5025012;28;20220;-71
2022/10/18 00:41:44;;;;;;;4.70;3.28;;;18.10;99.90;;;;;;5031041;28;20182;-71
2022/10/18 00:44:12;;;;;;;5.38;3.38;;;18.10;99.90;;;;;;5041009;28;20175;-73
2022/10/18 00:46:45;;;;;;;4.20;3.28;;;18.10;99.90;;;;;;5029077;28;20176;-73
2022/10/18 00:49:17;;;;;;;4.65;3.47;;;18.10;99.90;;;;;;5023599;28;20194;-73
2022/10/18 00:52:01;;;;;;;4.90;3.47;;;18.10;99.90;;;;;;5019869;28;20194;-73
2022/10/18 00:54:33;;;;;;;3.90;3.50;;;18.10;99.90;;;;;;5030074;28;20204;-73
2022/10/18 00:57:00;;;;;;;4.18;3.60;;;18.10;99.90;;;;;;5029431;28;20221;-73
2022/10/18 00:59:26;;;;;;;5.22;3.95;;;18.10;99.90;;;;;;5025818;28;20182;-71
2022/10/18 01:01:52;;;;;;;3.97;3.50;;;18.10;99.90;;;;;;5024318;28;20221;-73
2022/10/18 01:04:23;;;;;;;4.70;3.78;;;18.10;99.90;;;;;;5029493;28;20272;-73
2022/10/18 01:07:07;;;;;;;5.13;3.55;;;18.10;99.90;;;;;;5031265;28;20174;-73
2022/10/18 01:09:42;;;;;;;4.78;3.70;;;18.10;99.90;;;;;;5024124;28;20186;-73
2022/10/18 01:12:16;;;;;;;6.20;4.45;;;18.10;99.90;;;;;;5039143;28;20208;-73
2022/10/18 01:15:07;;;;;;;5.25;4.30;;;18.10;99.90;;;;;;5019773;28;20240;-73
2022/10/18 01:18:03;;;;;;;4.93;4.20;;;18.10;99.90;;;;;;5016197;28;20329;-73
2022/10/18 01:20:47;;;;;;;4.93;3.58;;;18.00;99.90;;;;;;5020775;28;20287;-73
2022/10/18 01:23:31;;;;;;;5.20;3.78;;;18.10;99.90;;;;;;5015980;28;20182;-72
2022/10/18 01:26:28;;;;;;;5.25;4.03;;;18.00;99.90;;;;;;5026058;28;20227;-72
2022/10/18 01:29:26;;;;;;;6.35;4.25;;;18.00;99.90;;;;;;5027775;28;20198;-72
2022/10/18 01:32:03;;;;;;;4.63;3.85;;;18.00;99.90;;;;;;5013685;28;20378;-70
2022/10/18 01:34:34;;;;;;;6.57;4.25;;;18.00;99.90;;;;;;5019747;28;20178;-74
2022/10/18 01:37:10;;;;;;;5.47;4.40;;;18.00;99.90;;;;;;5030484;28;20178;-71
2022/10/18 01:39:38;;;;;;;5.45;4.43;;;18.10;99.90;;;;;;5027085;28;20205;-73
2022/10/18 01:42:09;;;;;;;6.35;5.00;;;18.00;99.90;;;;;;5032557;28;20271;-73
2022/10/18 01:44:40;;;;;;;6.43;4.55;;;18.00;99.90;;;;;;5031218;28;20178;-70
2022/10/18 01:47:09;;;;;;;5.60;4.43;;;18.00;99.90;;;;;;5026869;28;20201;-71
2022/10/18 01:49:34;;;;;;;5.63;4.53;;;18.00;99.90;;;;;;5028289;28;20205;-71
2022/10/18 01:52:00;;;;;;;5.38;4.60;;;18.00;99.90;;;;;;5030374;28;20174;-71
2022/10/18 01:54:33;;;;;;;5.50;4.35;;;18.00;99.90;;;;;;5027481;28;20198;-71
2022/10/18 01:57:18;;;;;;;5.22;4.30;;;18.00;99.90;;;;;;5022596;28;20224;-71
2022/10/18 02:00:08;;;;;;;4.63;4.00;;;18.00;99.90;;;;;;5040668;28;20193;-71
2022/10/18 02:02:55;;;;;;;6.07;4.13;;;18.00;99.90;;;;;;5023138;28;20190;-70
2022/10/18 02:05:29;;;;;;;4.45;4.03;;;18.00;99.90;;;;;;5014018;28;20173;-71
2022/10/18 02:08:04;;;;;;;6.03;4.80;;;18.00;99.90;;;;;;5029141;28;20210;-70
2022/10/18 02:10:46;;;;;;;8.07;5.10;;;18.00;99.90;;;;;;5031670;28;20174;-71
2022/10/18 02:13:16;;;;;;;6.30;4.88;;;18.00;99.90;;;;;;5027577;28;20256;-71
2022/10/18 02:15:48;;;;;;;5.88;4.65;;;18.00;99.90;;;;;;5003246;28;20255;-72
2022/10/18 02:18:24;;;;;;;5.82;4.85;;;17.90;99.90;;;;;;5028499;28;20192;-71
2022/10/18 02:20:51;;;;;;;7.45;5.78;;;18.00;99.90;;;;;;5029268;28;20235;-71
2022/10/18 02:23:21;;;;;;;7.25;5.70;;;17.90;99.90;;;;;;5026917;28;20208;-70
2022/10/18 02:25:49;;;;;;;7.68;5.35;;;17.90;99.90;;;;;;5022761;28;20287;-71
2022/10/18 02:28:15;;;;;;;6.78;5.50;;;17.90;99.90;;;;;;5026207;28;20277;-70
2022/10/18 02:31:08;;;;;;;6.85;5.25;;;17.90;99.90;;;;;;5023703;28;20198;-70
2022/10/18 02:33:45;;;;;;;7.05;5.40;;;17.90;99.90;;;;;;5033638;28;20277;-71
2022/10/18 02:36:38;;;;;;;6.65;5.55;;;17.90;99.90;;;;;;5024531;28;20166;-71
2022/10/18 02:39:13;;;;;;;7.38;5.47;;;17.90;99.90;;;;;;5031034;28;20224;-70
2022/10/18 02:41:42;;;;;;;6.72;5.07;;;17.90;99.90;;;;;;5029510;28;20201;-71
2022/10/18 02:44:08;;;;;;;6.65;5.95;;;17.90;99.90;;;;;;5021514;28;20225;-72
2022/10/18 02:46:37;;;;;;;7.15;5.53;;;17.90;99.90;;;;;;5028864;28;20246;-71
2022/10/18 02:49:02;;;;;;;7.22;5.90;;;17.80;99.90;;;;;;5024925;28;20210;-72
2022/10/18 02:51:28;;;;;;;6.72;5.75;;;17.90;99.90;;;;;;5032133;28;20228;-72
2022/10/18 02:53:58;;;;;;;6.10;5.30;;;17.90;99.90;;;;;;5032579;28;20288;-70
2022/10/18 02:56:24;;;;;;;6.28;5.50;;;17.90;99.90;;;;;;5027194;28;20240;-72
2022/10/18 02:58:50;;;;;;;7.60;6.00;;;17.80;99.90;;;;;;5026755;28;20225;-71
2022/10/18 03:01:15;;;;;;;8.02;6.05;;;17.90;99.90;;;;;;5032522;28;20185;-70
2022/10/18 03:03:41;;;;;;;7.07;5.80;;;17.80;99.90;;;;;;5027217;28;20293;-70
2022/10/18 03:06:09;;;;;;;7.00;5.82;;;17.80;99.90;;;;;;5027230;28;20187;-71
2022/10/18 03:08:35;;;;;;;7.10;5.47;;;17.80;99.90;;;;;;5024185;28;20248;-70
2022/10/18 03:11:01;;;;;;;6.68;5.22;;;17.80;99.90;;;;;;5026191;28;20217;-70
2022/10/18 03:13:26;;;;;;;6.78;5.30;;;17.80;99.90;;;;;;5027318;28;20281;-71
2022/10/18 03:15:54;;;;;;;6.60;5.70;;;17.80;99.90;;;;;;5033066;28;20174;-71
2022/10/18 03:18:22;;;;;;;6.80;5.22;;;17.80;99.90;;;;;;5034211;28;20260;-70
2022/10/18 03:20:48;;;;;;;7.38;5.63;;;17.70;99.90;;;;;;5029230;28;20328;-70
2022/10/18 03:23:13;;;;;;;6.65;5.38;;;17.70;99.90;;;;;;5021216;28;20183;-70
2022/10/18 03:25:39;;;;;;;6.60;5.20;;;17.70;99.90;;;;;;5029121;28;20214;-70
2022/10/18 03:28:05;;;;;;;5.97;4.75;;;17.70;99.90;;;;;;5030509;28;20289;-70
2022/10/18 03:30:30;;;;;;;6.72;5.75;;;17.70;99.90;;;;;;5027740;28;20194;-70
2022/10/18 03:32:56;;;;;;;7.80;6.43;;;17.70;99.90;;;;;;5026793;28;20218;-70
2022/10/18 03:35:21;;;;;;;11.00;8.40;;;17.70;99.90;;;;;;5031746;28;20181;-70
2022/10/18 03:37:47;;;;;;;9.13;7.88;;;17.70;99.90;;;;;;5027105;28;20205;-70
2022/10/18 03:40:13;;;;;;;8.60;6.72;;;17.70;99.90;;;;;;5034182;28;20190;-70
2022/10/18 03:42:41;;;;;;;6.25;5.35;;;17.70;99.90;;;;;;5029428;28;20247;-70
2022/10/18 03:45:09;;;;;;;19.00;15.32;;;17.70;99.90;;;;;;5027164;28;20199;-70
2022/10/18 03:47:35;;;;;;;14.45;11.90;;;17.70;99.90;;;;;;5024422;28;20192;-70
2022/10/18 03:50:03;;;;;;;10.13;8.73;;;17.70;99.90;;;;;;5029808;28;20261;-70
2022/10/18 03:52:30;;;;;;;8.60;7.00;;;17.70;99.90;;;;;;5026198;28;20193;-70
2022/10/18 03:54:58;;;;;;;7.55;6.22;;;17.70;99.90;;;;;;5026438;28;20185;-70
2022/10/18 03:57:26;;;;;;;6.82;5.90;;;17.70;99.90;;;;;;5029421;28;20206;-70
2022/10/18 03:59:52;;;;;;;12.35;9.95;;;17.70;99.90;;;;;;5033784;28;20777;-70
2022/10/18 04:02:17;;;;;;;8.00;6.72;;;17.70;99.90;;;;;;5031214;28;20240;-70
2022/10/18 04:04:43;;;;;;;13.63;11.45;;;17.70;99.90;;;;;;5024187;28;20181;-71
2022/10/18 04:07:13;;;;;;;8.82;7.80;;;17.70;99.90;;;;;;5032436;28;20213;-71
2022/10/18 04:09:41;;;;;;;8.20;6.45;;;17.70;99.90;;;;;;5040095;28;20218;-71
2022/10/18 04:12:09;;;;;;;7.10;5.90;;;17.70;99.90;;;;;;5024900;28;20194;-70
2022/10/18 04:14:37;;;;;;;6.68;5.38;;;17.70;99.90;;;;;;5025808;28;20224;-71
2022/10/18 04:17:03;;;;;;;6.40;5.72;;;17.70;99.90;;;;;;5026847;28;20174;-69
2022/10/18 04:19:32;;;;;;;6.90;5.65;;;17.70;99.90;;;;;;5027611;28;20205;-71
2022/10/18 04:21:57;;;;;;;9.30;6.00;;;17.70;99.90;;;;;;5029630;28;20195;-71
2022/10/18 04:24:25;;;;;;;7.30;5.35;;;17.70;99.90;;;;;;5031091;28;20204;-71
2022/10/18 04:26:53;;;;;;;13.38;10.50;;;17.70;99.90;;;;;;5032970;28;20206;-71
2022/10/18 04:29:21;;;;;;;7.68;6.45;;;17.70;99.90;;;;;;5030008;28;20272;-70
2022/10/18 04:31:49;;;;;;;6.72;6.03;;;17.70;99.90;;;;;;5029921;28;20178;-70
2022/10/18 04:34:15;;;;;;;8.20;6.25;;;17.70;99.90;;;;;;5030246;28;20206;-71
2022/10/18 04:36:40;;;;;;;5.78;5.00;;;17.70;99.90;;;;;;5034249;28;20212;-71
2022/10/18 04:39:08;;;;;;;7.32;5.82;;;17.70;99.90;;;;;;5034641;28;20189;-70
2022/10/18 04:41:34;;;;;;;6.45;5.40;;;17.70;99.90;;;;;;5028338;28;20202;-70
2022/10/18 04:44:01;;;;;;;6.47;5.47;;;17.70;99.90;;;;;;5015926;28;20189;-70
2022/10/18 04:46:27;;;;;;;6.43;5.45;;;17.70;99.90;;;;;;5019298;28;20193;-70
2022/10/18 04:48:55;;;;;;;10.75;8.40;;;17.70;99.90;;;;;;5045676;28;20207;-71
2022/10/18 04:51:23;;;;;;;9.50;7.95;;;17.70;99.90;;;;;;5033544;28;20178;-70
2022/10/18 04:53:50;;;;;;;6.45;5.80;;;17.70;99.90;;;;;;5030264;28;20178;-71
2022/10/18 04:56:21;;;;;;;7.05;5.85;;;17.70;99.90;;;;;;5035356;28;20181;-71
2022/10/18 04:58:46;;;;;;;6.07;4.88;;;17.70;99.90;;;;;;5036042;28;20158;-71
2022/10/18 05:01:12;;;;;;;6.18;4.85;;;17.70;99.90;;;;;;5033000;28;20490;-71
2022/10/18 05:03:38;;;;;;;6.35;4.60;;;17.70;99.90;;;;;;5034824;28;20181;-71
2022/10/18 05:06:06;;;;;;;5.07;4.22;;;17.70;99.90;;;;;;5034625;28;20185;-71
2022/10/18 05:08:33;;;;;;;4.88;4.35;;;17.70;99.90;;;;;;5030775;28;20289;-70
2022/10/18 05:11:02;;;;;;;4.82;4.18;;;17.70;99.90;;;;;;5018762;28;20303;-71
2022/10/18 05:13:28;;;;;;;5.43;4.25;;;17.70;99.90;;;;;;5023381;28;20257;-71
2022/10/18 05:15:53;;;;;;;4.78;4.10;;;17.70;99.90;;;;;;5017258;28;20246;-71
2022/10/18 05:18:21;;;;;;;5.70;4.05;;;17.70;99.90;;;;;;5016423;28;20197;-71
2022/10/18 05:20:47;;;;;;;4.78;3.95;;;17.70;99.90;;;;;;5019400;28;20236;-71
2022/10/18 05:23:12;;;;;;;4.35;3.90;;;17.70;99.90;;;;;;5032952;28;20205;-70
2022/10/18 05:25:42;;;;;;;4.47;3.60;;;17.70;99.90;;;;;;5032813;28;20186;-70
2022/10/18 05:28:10;;;;;;;4.28;3.47;;;17.70;99.90;;;;;;5030946;28;20263;-71
2022/10/18 05:30:37;;;;;;;4.28;3.67;;;17.70;99.90;;;;;;5028479;28;20236;-70
2022/10/18 05:33:06;;;;;;;4.28;3.85;;;17.70;99.90;;;;;;5034665;28;20170;-70
2022/10/18 05:35:32;;;;;;;4.57;3.50;;;17.70;99.90;;;;;;5034202;28;20201;-71
2022/10/18 05:37:58;;;;;;;4.00;3.35;;;17.70;99.90;;;;;;5031465;28;20190;-70
2022/10/18 05:40:23;;;;;;;4.80;3.58;;;17.70;99.90;;;;;;5024864;28;20236;-71
2022/10/18 05:42:54;;;;;;;4.10;3.70;;;17.70;99.90;;;;;;5032334;28;20245;-71
2022/10/18 05:45:22;;;;;;;4.45;4.00;;;17.70;99.90;;;;;;5031740;28;20190;-70
2022/10/18 05:47:47;;;;;;;3.92;3.42;;;17.70;99.90;;;;;;5038475;28;20201;-70
2022/10/18 05:50:16;;;;;;;4.25;3.70;;;17.70;99.90;;;;;;5034421;28;20162;-71
2022/10/18 05:52:46;;;;;;;4.13;3.40;;;17.70;99.90;;;;;;5030802;28;20182;-71
2022/10/18 05:55:11;;;;;;;4.25;3.60;;;17.70;99.90;;;;;;5033060;28;20269;-70
2022/10/18 05:57:39;;;;;;;3.40;3.10;;;17.70;99.90;;;;;;5032282;28;20228;-70
2022/10/18 06:00:05;;;;;;;5.82;3.83;;;17.70;99.90;;;;;;5025969;28;20178;-71
2022/10/18 06:02:33;;;;;;;3.83;3.10;;;17.70;99.90;;;;;;5034113;28;20190;-70
2022/10/18 06:04:59;;;;;;;4.88;3.47;;;17.70;99.90;;;;;;5033458;28;20178;-69
2022/10/18 06:07:24;;;;;;;3.33;3.03;;;17.70;99.90;;;;;;5014958;28;20212;-71
2022/10/18 06:09:52;;;;;;;3.60;3.25;;;17.70;99.90;;;;;;5017449;28;20244;-70
2022/10/18 06:12:20;;;;;;;4.90;4.10;;;17.70;99.90;;;;;;5015321;28;20182;-69
2022/10/18 06:14:50;;;;;;;4.45;3.72;;;17.80;99.90;;;;;;5032369;28;20195;-70
2022/10/18 06:17:16;;;;;;;4.35;3.58;;;17.80;99.90;;;;;;5019188;28;20183;-70
2022/10/18 06:19:43;;;;;;;4.55;3.22;;;17.70;99.90;;;;;;5015699;28;20193;-70
2022/10/18 06:22:12;;;;;;;4.63;3.63;;;17.70;99.90;;;;;;5033001;28;20171;-70
2022/10/18 06:24:37;;;;;;;4.07;3.58;;;17.80;99.90;;;;;;5018150;28;20325;-71
2022/10/18 06:27:07;;;;;;;5.60;3.92;;;17.80;99.90;;;;;;5024778;28;20264;-70
2022/10/18 06:29:39;;;;;;;5.25;3.97;;;17.70;99.90;;;;;;5036728;28;20284;-70
2022/10/18 06:32:06;;;;;;;5.30;3.65;;;17.80;99.90;;;;;;5018406;28;20163;-70
2022/10/18 06:34:32;;;;;;;5.50;3.85;;;17.80;99.90;;;;;;5020507;28;20206;-70
2022/10/18 06:36:57;;;;;;;5.20;3.80;;;17.80;99.90;;;;;;5031826;28;20182;-70
2022/10/18 06:39:26;;;;;;;5.32;4.18;;;17.80;99.90;;;;;;5031031;28;20178;-71
2022/10/18 06:41:52;;;;;;;4.22;3.70;;;17.80;99.90;;;;;;5037590;28;20233;-70
2022/10/18 06:44:20;;;;;;;4.72;3.95;;;17.70;99.90;;;;;;5035769;28;20178;-70
2022/10/18 06:46:50;;;;;;;6.20;4.35;;;17.70;99.90;;;;;;5037192;28;20232;-71
2022/10/18 06:49:16;;;;;;;5.65;4.30;;;17.70;99.90;;;;;;5031914;28;20198;-70
2022/10/18 06:51:45;;;;;;;6.45;3.92;;;17.70;99.90;;;;;;5033718;28;20184;-71
2022/10/18 06:54:10;;;;;;;5.55;4.45;;;17.70;99.90;;;;;;5036835;28;20240;-71
2022/10/18 06:56:39;;;;;;;6.40;4.68;;;17.70;99.90;;;;;;5030783;28;20178;-71
2022/10/18 06:59:04;;;;;;;5.03;4.05;;;17.70;99.90;;;;;;5036896;28;20268;-71
2022/10/18 07:01:33;;;;;;;4.20;3.33;;;17.80;99.90;;;;;;5036540;28;20281;-70
2022/10/18 07:04:00;;;;;;;5.20;3.55;;;17.70;99.90;;;;;;5033007;28;20189;-70
2022/10/18 07:06:28;;;;;;;5.35;4.07;;;17.80;99.90;;;;;;5035727;28;20190;-70
2022/10/18 07:08:54;;;;;;;5.05;3.50;;;17.70;99.90;;;;;;5036822;28;20222;-70
2022/10/18 07:11:25;;;;;;;3.80;3.00;;;17.70;99.90;;;;;;5031078;28;20200;-70
2022/10/18 07:13:59;;;;;;;4.13;3.40;;;17.70;99.90;;;;;;5017375;28;20226;-71
2022/10/18 07:16:25;;;;;;;4.38;3.20;;;17.70;99.90;;;;;;5036819;28;20184;-71
2022/10/18 07:18:54;;;;;;;3.70;3.03;;;17.70;99.90;;;;;;5035803;28;20178;-71
2022/10/18 07:21:27;;;;;;;3.70;3.08;;;17.70;99.90;;;;;;5036640;28;20281;-73
2022/10/18 07:23:53;;;;;;;4.05;3.55;;;17.70;99.90;;;;;;5036794;28;20185;-72
2022/10/18 07:26:24;;;;;;;4.82;3.53;;;17.70;99.90;;;;;;5037049;28;20260;-72
2022/10/18 07:28:54;;;;;;;5.93;3.45;;;17.70;99.90;;;;;;5027786;28;20214;-72
2022/10/18 07:31:25;;;;;;;5.13;3.50;;;17.70;99.90;;;;;;5017995;28;20178;-72
2022/10/18 07:33:51;;;;;;;5.03;3.60;;;17.80;99.90;;;;;;5037548;28;20182;-72
2022/10/18 07:36:16;;;;;;;4.68;3.83;;;17.80;99.90;;;;;;5036512;28;20185;-73
2022/10/18 07:38:45;;;;;;;6.70;4.30;;;17.80;99.90;;;;;;5029173;28;20240;-73
2022/10/18 07:41:12;;;;;;;7.13;4.72;;;17.80;99.90;;;;;;5020926;28;20182;-72
2022/10/18 07:43:44;;;;;;;7.13;5.18;;;17.80;99.90;;;;;;5022331;28;20182;-73
2022/10/18 07:46:10;;;;;;;5.70;4.82;;;17.90;99.90;;;;;;5022356;28;20344;-73
2022/10/18 07:48:36;;;;;;;6.93;4.82;;;17.80;99.90;;;;;;5036789;28;20216;-72
2022/10/18 07:51:04;;;;;;;6.38;4.50;;;17.80;99.90;;;;;;5028790;28;20273;-70
2022/10/18 07:53:33;;;;;;;7.57;5.45;;;17.80;99.90;;;;;;5019535;28;20187;-70
2022/10/18 07:56:08;;;;;;;6.72;5.20;;;17.80;99.90;;;;;;5020058;28;20206;-69
2022/10/18 07:58:36;;;;;;;6.78;5.45;;;17.90;99.90;;;;;;5037096;28;20189;-72
2022/10/18 08:01:06;;;;;;;8.52;5.82;;;17.90;99.90;;;;;;5034826;28;20290;-74
2022/10/18 08:03:35;;;;;;;8.10;5.75;;;17.90;99.90;;;;;;5038778;28;20255;-76
2022/10/18 08:06:02;;;;;;;8.77;6.13;;;17.90;99.90;;;;;;5036635;28;20181;-77
2022/10/18 08:08:28;;;;;;;6.80;5.47;;;17.90;99.90;;;;;;5017515;28;20198;-76
2022/10/18 08:10:54;;;;;;;7.28;5.22;;;17.90;99.90;;;;;;5017091;28;20206;-77
2022/10/18 08:13:19;;;;;;;6.25;5.00;;;17.90;99.90;;;;;;5016482;28;20228;-76
2022/10/18 08:15:45;;;;;;;6.38;5.05;;;18.00;99.90;;;;;;5032787;28;20194;-78
2022/10/18 08:18:11;;;;;;;5.50;4.40;;;18.00;99.90;;;;;;5036563;28;20182;-78
2022/10/18 08:20:42;;;;;;;5.00;4.47;;;18.00;99.90;;;;;;5036384;28;20170;-78
2022/10/18 08:23:08;;;;;;;5.40;4.30;;;18.00;99.90;;;;;;5032417;28;20202;-78
2022/10/18 08:25:33;;;;;;;5.28;4.13;;;18.00;99.90;;;;;;5036230;28;20185;-76
2022/10/18 08:28:00;;;;;;;5.25;3.55;;;18.00;99.90;;;;;;5035917;28;20189;-76
2022/10/18 08:30:28;;;;;;;4.90;3.83;;;18.00;99.90;;;;;;5035896;28;20197;-77
2022/10/18 08:32:53;;;;;;;4.32;3.60;;;18.00;99.90;;;;;;5035894;28;20174;-77
2022/10/18 08:35:21;;;;;;;3.67;3.20;;;18.00;99.90;;;;;;5035760;28;20178;-78
2022/10/18 08:37:47;;;;;;;4.85;3.25;;;18.00;99.90;;;;;;5036122;28;20173;-75
2022/10/18 08:40:16;;;;;;;4.40;3.42;;;18.00;99.90;;;;;;5035645;28;20174;-77
2022/10/18 08:43:05;;;;;;;3.10;2.60;;;18.00;99.90;;;;;;5035526;28;20255;-77
2022/10/18 08:45:37;;;;;;;3.35;2.72;;;18.00;99.90;;;;;;5036308;28;20174;-75
2022/10/18 08:48:04;;;;;;;3.00;2.70;;;18.10;99.90;;;;;;5035603;28;20189;-77
2022/10/18 08:50:37;;;;;;;3.05;2.60;;;18.10;99.90;;;;;;5034162;28;20178;-77
2022/10/18 08:53:37;;;;;;;3.55;2.80;;;18.10;99.90;;;;;;5036427;28;20189;-77
2022/10/18 08:56:13;;;;;;;2.60;2.40;;;18.10;99.90;;;;;;5031153;28;20232;-76
2022/10/18 08:58:43;;;;;;;2.95;2.63;;;18.10;99.90;;;;;;5029822;28;20173;-77
2022/10/18 09:01:39;;;;;;;2.58;2.28;;;18.20;99.90;;;;;;5034313;28;20208;-77
2022/10/18 09:04:14;;;;;;;3.33;2.42;;;18.20;99.90;;;;;;5035430;28;20198;-77
2022/10/18 09:07:19;;;;;;;2.53;2.33;;;18.20;99.90;;;;;;5027174;28;20177;-77
2022/10/18 09:09:59;;;;;;;3.40;2.53;;;18.30;99.90;;;;;;5024946;28;20221;-77
2022/10/18 09:12:53;;;;;;;3.90;2.50;;;18.30;99.90;;;;;;5019276;28;20189;-78
2022/10/18 09:15:25;;;;;;;4.32;2.80;;;18.40;99.90;;;;;;5029745;28;20232;-77
2022/10/18 09:18:12;;;;;;;3.40;2.95;;;18.40;99.90;;;;;;5017679;28;20171;-78
2022/10/18 09:20:59;;;;;;;3.03;2.72;;;18.40;99.90;;;;;;5035992;28;20177;-77
2022/10/18 09:23:48;;;;;;;3.20;2.67;;;18.40;99.90;;;;;;5042291;28;20213;-77
2022/10/18 09:26:18;;;;;;;5.32;3.03;;;18.30;99.90;;;;;;5040774;28;20194;-75
2022/10/18 09:29:14;;;;;;;4.50;3.10;;;18.30;99.90;;;;;;5017971;28;20197;-78
2022/10/18 09:32:20;;;;;;;3.53;3.03;;;18.30;99.90;;;;;;5034989;28;20178;-76
2022/10/18 09:35:26;;;;;;;4.28;3.10;;;18.30;99.90;;;;;;5015220;28;20159;-77
2022/10/18 09:38:01;;;;;;;4.97;2.72;;;18.30;99.90;;;;;;5025743;28;20210;-79
2022/10/18 09:40:29;;;;;;;5.30;3.65;;;18.30;99.90;;;;;;5032309;28;20200;-78
2022/10/18 09:43:14;;;;;;;5.50;3.45;;;18.30;99.90;;;;;;5034743;28;20185;-76
2022/10/18 09:45:47;;;;;;;5.13;3.60;;;18.30;99.90;;;;;;5034184;28;20190;-78
2022/10/18 09:48:14;;;;;;;6.05;3.90;;;18.30;99.90;;;;;;5034498;28;20197;-78
2022/10/18 09:50:45;;;;;;;4.97;3.45;;;18.30;99.90;;;;;;5034844;28;20211;-77
2022/10/18 09:53:20;;;;;;;5.90;4.03;;;18.30;99.90;;;;;;5035391;28;20174;-78
2022/10/18 09:56:00;;;;;;;7.05;4.45;;;18.40;99.90;;;;;;5045975;28;20177;-75
2022/10/18 09:58:43;;;;;;;6.28;4.45;;;18.40;99.90;;;;;;5054970;28;20194;-76
2022/10/18 10:01:10;;;;;;;8.57;4.80;;;18.40;99.90;;;;;;5058375;28;20188;-73
2022/10/18 10:03:39;;;;;;;7.55;5.07;;;18.40;99.90;;;;;;5049738;28;20202;-78
2022/10/18 10:06:10;;;;;;;6.93;4.65;;;18.40;99.90;;;;;;5027439;28;20170;-78
2022/10/18 10:08:39;;;;;;;8.35;5.47;;;18.40;99.90;;;;;;5018762;28;20233;-77
2022/10/18 10:11:26;;;;;;;9.07;6.40;;;18.40;99.90;;;;;;5019436;28;20194;-77
2022/10/18 10:13:58;;;;;;;12.48;7.35;;;18.40;99.90;;;;;;5020592;28;20225;-77
2022/10/18 10:16:26;;;;;;;12.93;6.85;;;18.40;99.90;;;;;;5037745;28;20180;-78
2022/10/18 10:18:53;;;;;;;13.40;7.72;;;18.40;99.90;;;;;;5032853;28;20252;-78
2022/10/18 10:21:22;;;;;;;12.20;7.07;;;18.40;99.90;;;;;;5018584;28;20174;-77
2022/10/18 10:23:54;;;;;;;13.13;7.82;;;18.40;99.90;;;;;;5033588;28;20189;-78
2022/10/18 10:26:37;;;;;;;13.35;7.47;;;18.40;99.90;;;;;;5033269;28;20215;-77
2022/10/18 10:29:23;;;;;;;12.35;6.88;;;18.40;99.90;;;;;;5054286;28;20277;-77
2022/10/18 10:32:05;;;;;;;12.32;7.43;;;18.40;99.90;;;;;;5037917;28;20232;-77
2022/10/18 10:34:30;;;;;;;11.95;7.47;;;18.50;99.90;;;;;;5019099;28;20253;-78
2022/10/18 10:36:56;;;;;;;12.48;7.32;;;18.50;99.90;;;;;;5018711;28;20302;-78
2022/10/18 10:39:25;;;;;;;12.65;7.10;;;18.50;99.90;;;;;;5021180;28;20190;-77
2022/10/18 10:41:53;;;;;;;12.07;7.38;;;18.50;99.90;;;;;;5038267;28;20171;-78
2022/10/18 10:44:22;;;;;;;13.60;8.23;;;18.50;99.90;;;;;;5038125;28;20194;-78
2022/10/18 10:46:51;;;;;;;13.13;7.95;;;18.60;99.90;;;;;;5028639;28;20183;-78
2022/10/18 10:49:41;;;;;;;14.65;8.00;;;18.60;99.90;;;;;;5030317;28;20229;-78
2022/10/18 10:52:19;;;;;;;13.35;8.48;;;18.70;99.90;;;;;;5035396;28;20259;-78
2022/10/18 10:54:45;;;;;;;14.32;9.00;;;18.70;99.90;;;;;;5019033;28;20181;-78
2022/10/18 10:57:11;;;;;;;14.65;9.30;;;18.70;99.90;;;;;;5034250;28;20174;-78
2022/10/18 10:59:51;;;;;;;13.88;9.13;;;18.70;99.90;;;;;;5038702;28;20177;-78
2022/10/18 11:02:30;;;;;;;12.82;8.85;;;18.80;99.90;;;;;;5019637;28;20222;-77
2022/10/18 11:05:21;;;;;;;14.98;9.05;;;18.80;99.90;;;;;;5020191;28;20202;-76
2022/10/18 11:07:51;;;;;;;13.57;8.98;;;18.80;99.90;;;;;;5037562;28;20231;-76
2022/10/18 11:10:21;;;;;;;14.60;9.60;;;18.70;99.90;;;;;;5001923;28;20267;-77
2022/10/18 11:13:29;;;;;;;14.98;8.77;;;18.70;99.90;;;;;;5027728;28;20185;-77
2022/10/18 11:16:02;;;;;;;15.82;9.40;;;18.70;99.90;;;;;;5037506;28;20219;-77
2022/10/18 11:18:36;;;;;;;15.23;10.13;;;18.70;99.90;;;;;;5037424;28;20198;-77
2022/10/18 11:21:13;;;;;;;14.52;9.70;;;18.70;99.90;;;;;;5029065;28;20178;-77
2022/10/18 11:23:44;;;;;;;16.40;9.75;;;18.80;99.90;;;;;;5037584;28;20185;-77
2022/10/18 11:26:18;;;;;;;16.13;10.10;;;18.80;99.90;;;;;;5026775;28;20183;-76
2022/10/18 11:29:37;;;;;;;15.98;10.18;;;18.90;99.90;;;;;;5020134;28;20213;-77
2022/10/18 11:32:15;;;;;;;17.42;10.00;;;18.90;99.90;;;;;;4999588;28;20213;-77
2022/10/18 11:34:53;;;;;;;13.63;9.77;;;18.90;99.90;;;;;;5030037;28;20181;-77
2022/10/18 11:37:53;;;;;;;15.38;10.43;;;18.90;99.90;;;;;;5032513;28;20536;-77
2022/10/18 11:40:45;;;;;;;15.25;10.10;;;18.90;99.90;;;;;;5030710;28;20209;-76
2022/10/18 11:43:19;;;;;;;16.90;10.50;;;18.90;99.90;;;;;;5007474;28;20452;-76
2022/10/18 11:46:10;;;;;;;14.90;9.73;;;18.90;99.90;;;;;;5035850;28;20215;-76
2022/10/18 11:49:07;;;;;;;15.73;10.48;;;19.00;99.90;;;;;;5034668;28;20281;-76
2022/10/18 11:51:57;;;;;;;16.77;11.27;;;19.10;99.90;;;;;;5032959;28;20173;-76
2022/10/18 11:54:32;;;;;;;18.42;12.63;;;19.10;99.90;;;;;;5019966;28;20170;-76
2022/10/18 11:57:19;;;;;;;20.30;13.10;;;19.20;99.90;;;;;;5039206;28;20173;-76
2022/10/18 11:59:50;;;;;;;23.15;13.40;;;19.30;99.90;;;;;;5028772;28;20209;-76
2022/10/18 12:02:56;;;;;;;22.63;13.38;;;19.40;99.90;;;;;;5022925;28;20198;-76
2022/10/18 12:05:23;;;;;;;23.25;15.15;;;19.40;99.90;;;;;;5033481;28;20533;-76
2022/10/18 12:07:59;;;;;;;23.10;14.90;;;19.40;99.90;;;;;;5016493;28;20225;-76
2022/10/18 12:10:29;;;;;;;21.85;14.38;;;19.40;99.90;;;;;;5016906;28;20179;-76
2022/10/18 12:13:04;;;;;;;23.98;15.27;;;19.50;99.90;;;;;;5024821;28;20244;-76
2022/10/18 12:15:37;;;;;;;25.27;15.45;;;19.50;99.90;;;;;;5039859;28;20173;-77
2022/10/18 12:18:16;;;;;;;25.90;16.27;;;19.60;99.90;;;;;;5052154;28;20188;-73
2022/10/18 12:20:48;;;;;;;28.73;17.92;;;19.60;99.90;;;;;;5043470;28;20170;-75
2022/10/18 12:23:34;;;;;;;27.00;18.20;;;19.70;99.90;;;;;;5028787;28;20260;-74
2022/10/18 12:26:06;;;;;;;26.90;16.98;;;19.70;99.90;;;;;;5017067;28;20234;-75
2022/10/18 12:28:50;;;;;;;29.23;18.05;;;19.70;99.90;;;;;;5046676;28;20220;-76
2022/10/18 12:31:19;;;;;;;29.52;18.95;;;19.80;99.90;;;;;;5034435;28;20183;-77
2022/10/18 12:33:49;;;;;;;28.23;19.27;;;19.80;99.90;;;;;;5017474;28;20224;-76
2022/10/18 12:36:20;;;;;;;25.27;17.85;;;19.80;99.90;;;;;;5036321;28;20397;-76
2022/10/18 12:38:57;;;;;;;26.55;18.48;;;19.80;99.90;;;;;;5021124;28;20210;-76
2022/10/18 12:41:33;;;;;;;27.92;17.33;;;19.80;99.90;;;;;;5027893;28;20173;-76
2022/10/18 12:44:06;;;;;;;29.38;18.30;;;19.80;99.90;;;;;;5035531;28;20330;-75
2022/10/18 12:46:53;;;;;;;28.90;18.75;;;19.80;99.90;;;;;;5035642;28;20209;-74
2022/10/18 12:49:38;;;;;;;28.60;18.08;;;19.80;99.90;;;;;;5022559;28;20202;-74
2022/10/18 12:52:17;;;;;;;28.80;18.75;;;19.80;99.90;;;;;;5036389;28;20209;-75
2022/10/18 12:54:59;;;;;;;30.58;19.42;;;19.90;99.90;;;;;;5041299;28;20158;-75
2022/10/18 12:57:51;;;;;;;28.52;18.05;;;19.90;99.90;;;;;;5039704;28;20185;-75
2022/10/18 13:00:31;;;;;;;24.60;16.05;;;20.00;99.90;;;;;;5024537;28;20237;-76
2022/10/18 13:03:11;;;;;;;24.38;16.77;;;20.00;99.90;;;;;;5015639;28;20186;-75
2022/10/18 13:05:46;;;;;;;23.48;16.58;;;20.00;99.90;;;;;;5031427;28;20180;-75
2022/10/18 13:08:33;;;;;;;24.80;16.27;;;20.00;99.90;;;;;;5035504;28;20211;-77
2022/10/18 13:11:08;;;;;;;22.10;15.02;;;20.20;99.90;;;;;;5035629;28;20173;-76